createdAt,value
2017-08-17T00:00:00.600Z,8.45
2017-08-17T00:01:00.552Z,8.46
2017-08-17T00:02:00.537Z,8.5
2017-08-17T00:03:00.518Z,8.45
2017-08-17T00:04:00.510Z,8.45
2017-08-17T00:05:00.509Z,8.42
2017-08-17T00:06:00.504Z,8.42
2017-08-17T00:07:00.493Z,8.52
2017-08-17T00:08:00.681Z,8.42
2017-08-17T00:09:00.675Z,8.42
2017-08-17T00:10:00.456Z,8.42
2017-08-17T00:11:00.441Z,8.49
2017-08-17T00:12:00.435Z,8.45
2017-08-17T00:13:00.125Z,8.39
2017-08-17T00:14:00.408Z,8.45
2017-08-17T00:15:00.410Z,8.46
2017-08-17T00:16:00.396Z,8.46
2017-08-17T00:17:00.089Z,8.42
2017-08-17T00:18:00.382Z,8.42
2017-08-17T00:19:00.387Z,8.47
2017-08-17T00:20:00.352Z,8.5
2017-08-17T00:21:00.351Z,8.47
2017-08-17T00:22:00.347Z,8.54
2017-08-17T00:23:00.342Z,8.58
2017-08-17T00:24:00.326Z,8.5
2017-08-17T00:25:00.304Z,8.55
2017-08-17T00:26:00.300Z,8.57
2017-08-17T00:27:00.291Z,8.5
2017-08-17T00:28:00.289Z,8.57
2017-08-17T00:29:00.276Z,8.55
2017-08-17T00:29:59.961Z,8.49
2017-08-17T00:31:00.244Z,8.52
2017-08-17T00:32:00.243Z,8.54
2017-08-17T00:33:00.232Z,8.47
2017-08-17T00:34:00.217Z,8.5
2017-08-17T00:35:00.215Z,8.52
2017-08-17T00:36:00.217Z,8.5
2017-08-17T00:36:59.889Z,8.45
2017-08-17T00:37:59.876Z,8.5
2017-08-17T00:39:00.180Z,8.45
2017-08-17T00:40:00.165Z,8.49
2017-08-17T00:41:00.160Z,8.49
2017-08-17T00:42:00.151Z,8.5
2017-08-17T00:43:00.136Z,8.49
2017-08-17T00:43:59.821Z,8.57
2017-08-17T00:45:00.119Z,8.57
2017-08-17T00:45:59.800Z,8.52
2017-08-17T00:46:59.797Z,8.45
2017-08-17T00:48:00.086Z,8.5
2017-08-17T00:48:59.781Z,8.63
2017-08-17T00:50:00.063Z,8.6
2017-08-17T00:51:00.066Z,8.55
2017-08-17T00:52:00.049Z,8.49
2017-08-17T00:52:59.416Z,8.64
2017-08-17T00:54:00.016Z,8.58
2017-08-17T00:55:00.008Z,8.58
2017-08-17T00:55:59.997Z,8.58
2017-08-17T00:56:59.681Z,8.58
2017-08-17T00:57:59.990Z,8.61
2017-08-17T00:58:59.663Z,8.52
2017-08-17T00:59:59.653Z,8.64
2017-08-17T01:00:59.950Z,8.58
2017-08-17T01:01:59.943Z,8.64
2017-08-17T01:02:59.637Z,8.55
2017-08-17T01:03:59.614Z,8.64
2017-08-17T01:04:59.898Z,8.55
2017-08-17T01:05:59.903Z,8.7
2017-08-17T01:06:59.889Z,8.67
2017-08-17T01:07:59.882Z,8.57
2017-08-17T01:08:59.890Z,8.57
2017-08-17T01:09:59.859Z,8.6
2017-08-17T01:10:59.847Z,8.55
2017-08-17T01:11:59.836Z,8.55
2017-08-17T01:12:59.837Z,8.64
2017-08-17T01:13:59.825Z,8.67
2017-08-17T01:14:59.806Z,8.64
2017-08-17T01:15:59.806Z,8.58
2017-08-17T01:16:59.797Z,8.64
2017-08-17T01:17:59.788Z,8.7
2017-08-17T01:18:59.763Z,8.58
2017-08-17T01:19:59.760Z,8.65
2017-08-17T01:20:59.742Z,8.64
2017-08-17T01:21:59.739Z,8.58
2017-08-17T01:22:59.724Z,8.63
2017-08-17T01:23:59.727Z,8.54
2017-08-17T01:24:59.704Z,8.6
2017-08-17T01:25:59.401Z,8.61
2017-08-17T01:26:59.691Z,8.5
2017-08-17T01:27:59.684Z,8.46
2017-08-17T01:28:59.359Z,8.54
2017-08-17T01:29:59.660Z,8.54
2017-08-17T01:30:59.645Z,8.46
2017-08-17T01:31:59.631Z,8.58
2017-08-17T01:32:59.332Z,8.54
2017-08-17T01:33:59.319Z,8.49
2017-08-17T01:34:59.625Z,8.49
2017-08-17T01:35:59.595Z,8.61
2017-08-17T01:36:59.583Z,8.6
2017-08-17T01:37:59.574Z,8.65
2017-08-17T01:38:59.276Z,8.68
2017-08-17T01:39:59.569Z,8.68
2017-08-17T01:40:59.276Z,8.63
2017-08-17T01:41:59.531Z,8.73
2017-08-17T01:42:59.529Z,8.67
2017-08-17T01:43:59.522Z,8.68
2017-08-17T01:44:59.201Z,8.63
2017-08-17T01:45:59.497Z,8.67
2017-08-17T01:46:59.497Z,8.64
2017-08-17T01:47:59.174Z,8.65
2017-08-17T01:48:59.164Z,8.68
2017-08-17T01:49:59.151Z,8.76
2017-08-17T01:50:59.147Z,8.68
2017-08-17T01:51:59.137Z,8.67
2017-08-17T01:52:59.423Z,8.68
2017-08-17T01:53:59.413Z,8.63
2017-08-17T01:54:59.424Z,8.58
2017-08-17T01:55:59.391Z,8.61
2017-08-17T01:56:59.384Z,8.61
2017-08-17T01:57:59.382Z,8.63
2017-08-17T01:58:59.373Z,8.64
2017-08-17T01:59:59.039Z,8.61
2017-08-17T02:00:59.336Z,8.58
2017-08-17T02:01:59.023Z,8.65
2017-08-17T02:02:59.342Z,8.6
2017-08-17T02:03:59.311Z,8.58
2017-08-17T02:04:59.300Z,8.61
2017-08-17T02:05:59.294Z,8.58
2017-08-17T02:06:59.277Z,8.64
2017-08-17T02:07:59.268Z,8.65
2017-08-17T02:08:59.273Z,8.58
2017-08-17T02:09:59.240Z,8.65
2017-08-17T02:10:59.242Z,8.7
2017-08-17T02:11:59.230Z,8.63
2017-08-17T02:12:59.212Z,8.75
2017-08-17T02:13:59.196Z,8.6
2017-08-17T02:14:59.191Z,8.63
2017-08-17T02:15:59.193Z,8.73
2017-08-17T02:16:59.178Z,8.65
2017-08-17T02:17:59.175Z,8.75
2017-08-17T02:18:58.550Z,8.68
2017-08-17T02:19:59.156Z,8.86
2017-08-17T02:20:59.136Z,8.79
2017-08-17T02:21:59.121Z,8.67
2017-08-17T02:22:59.104Z,8.8
2017-08-17T02:23:59.097Z,8.75
2017-08-17T02:24:59.092Z,8.78
2017-08-17T02:25:59.086Z,8.83
2017-08-17T02:26:59.073Z,8.8
2017-08-17T02:27:58.762Z,8.86
2017-08-17T02:28:59.051Z,8.93
2017-08-17T02:29:59.043Z,8.91
2017-08-17T02:30:59.039Z,8.94
2017-08-17T02:31:59.024Z,8.89
2017-08-17T02:32:59.007Z,8.89
2017-08-17T02:33:59.005Z,8.94
2017-08-17T02:34:58.989Z,8.85
2017-08-17T02:35:58.990Z,8.85
2017-08-17T02:36:58.970Z,8.88
2017-08-17T02:37:58.961Z,8.79
2017-08-17T02:38:58.956Z,8.79
2017-08-17T02:39:58.948Z,8.75
2017-08-17T02:40:58.926Z,8.85
2017-08-17T02:41:58.922Z,8.76
2017-08-17T02:42:58.907Z,8.86
2017-08-17T02:43:58.903Z,8.79
2017-08-17T02:44:58.892Z,8.79
2017-08-17T02:45:58.878Z,8.83
2017-08-17T02:46:58.868Z,8.75
2017-08-17T02:47:58.548Z,8.75
2017-08-17T02:48:58.850Z,8.88
2017-08-17T02:49:58.844Z,8.88
2017-08-17T02:50:58.825Z,8.83
2017-08-17T02:51:58.810Z,8.82
2017-08-17T02:52:58.805Z,8.76
2017-08-17T02:53:58.787Z,8.73
2017-08-17T02:54:58.787Z,8.82
2017-08-17T02:55:58.783Z,8.82
2017-08-17T02:56:58.759Z,8.79
2017-08-17T02:57:58.450Z,8.76
2017-08-17T02:58:58.440Z,8.83
2017-08-17T02:59:58.731Z,8.75
2017-08-17T03:00:58.417Z,8.73
2017-08-17T03:01:58.707Z,8.71
2017-08-17T03:02:58.708Z,8.76
2017-08-17T03:03:58.689Z,8.83
2017-08-17T03:04:58.691Z,8.76
2017-08-17T03:05:58.676Z,8.76
2017-08-17T03:06:58.658Z,8.82
2017-08-17T03:07:58.356Z,8.86
2017-08-17T03:08:58.655Z,8.83
2017-08-17T03:09:58.644Z,8.85
2017-08-17T03:10:58.634Z,8.82
2017-08-17T03:11:58.622Z,8.76
2017-08-17T03:12:58.600Z,8.8
2017-08-17T03:13:58.596Z,8.83
2017-08-17T03:14:58.279Z,8.89
2017-08-17T03:15:58.585Z,9
2017-08-17T03:16:58.595Z,8.91
2017-08-17T03:17:58.559Z,8.86
2017-08-17T03:18:58.561Z,8.96
2017-08-17T03:19:58.541Z,8.97
2017-08-17T03:20:58.223Z,9.01
2017-08-17T03:21:58.209Z,8.86
2017-08-17T03:22:58.213Z,8.83
2017-08-17T03:23:58.504Z,8.78
2017-08-17T03:24:58.493Z,8.76
2017-08-17T03:25:58.482Z,8.83
2017-08-17T03:26:58.468Z,8.88
2017-08-17T03:27:58.462Z,8.8
2017-08-17T03:28:58.455Z,8.78
2017-08-17T03:29:58.437Z,8.67
2017-08-17T03:30:58.446Z,8.76
2017-08-17T03:31:58.413Z,8.7
2017-08-17T03:32:58.406Z,8.76
2017-08-17T03:33:58.398Z,8.76
2017-08-17T03:34:58.398Z,8.79
2017-08-17T03:35:58.374Z,8.8
2017-08-17T03:36:58.376Z,8.82
2017-08-17T03:37:58.355Z,8.79
2017-08-17T03:38:58.063Z,8.78
2017-08-17T03:39:58.037Z,8.82
2017-08-17T03:40:58.339Z,8.76
2017-08-17T03:41:58.317Z,8.82
2017-08-17T03:42:58.022Z,8.8
2017-08-17T03:43:58.010Z,8.88
2017-08-17T03:44:58.298Z,8.85
2017-08-17T03:45:57.973Z,8.91
2017-08-17T03:46:58.276Z,8.86
2017-08-17T03:47:57.965Z,8.93
2017-08-17T03:48:57.942Z,8.91
2017-08-17T03:49:58.235Z,8.93
2017-08-17T03:50:57.927Z,9
2017-08-17T03:51:58.233Z,8.96
2017-08-17T03:52:58.213Z,8.96
2017-08-17T03:53:58.202Z,9.01
2017-08-17T03:54:58.189Z,9.01
2017-08-17T03:55:58.186Z,9
2017-08-17T03:56:58.167Z,8.97
2017-08-17T03:57:58.167Z,8.97
2017-08-17T03:58:58.152Z,8.98
2017-08-17T03:59:58.154Z,8.93
2017-08-17T04:00:58.139Z,9.01
2017-08-17T04:01:58.126Z,8.98
2017-08-17T04:02:58.157Z,9
2017-08-17T04:03:57.794Z,9
2017-08-17T04:04:58.090Z,8.96
2017-08-17T04:05:58.084Z,8.93
2017-08-17T04:06:58.072Z,8.93
2017-08-17T04:07:58.067Z,9
2017-08-17T04:08:58.056Z,8.94
2017-08-17T04:09:58.065Z,8.98
2017-08-17T04:10:58.031Z,8.96
2017-08-17T04:11:58.023Z,8.97
2017-08-17T04:12:58.012Z,9
2017-08-17T04:13:57.734Z,8.96
2017-08-17T04:14:57.378Z,9.03
2017-08-17T04:15:57.691Z,9
2017-08-17T04:16:57.970Z,8.97
2017-08-17T04:17:57.961Z,8.97
2017-08-17T04:18:57.957Z,8.98
2017-08-17T04:19:57.961Z,8.97
2017-08-17T04:20:57.920Z,8.96
2017-08-17T04:21:57.924Z,8.86
2017-08-17T04:22:57.922Z,8.93
2017-08-17T04:23:57.900Z,8.97
2017-08-17T04:24:57.590Z,8.83
2017-08-17T04:25:57.887Z,8.98
2017-08-17T04:26:57.874Z,8.89
2017-08-17T04:27:57.567Z,8.96
2017-08-17T04:28:57.850Z,8.91
2017-08-17T04:29:57.838Z,9
2017-08-17T04:30:57.831Z,9
2017-08-17T04:31:57.822Z,8.97
2017-08-17T04:32:57.805Z,9
2017-08-17T04:33:57.798Z,9.03
2017-08-17T04:34:57.790Z,8.98
2017-08-17T04:35:57.472Z,8.94
2017-08-17T04:36:57.470Z,8.94
2017-08-17T04:37:57.461Z,8.98
2017-08-17T04:38:57.468Z,8.83
2017-08-17T04:39:57.744Z,8.8
2017-08-17T04:40:57.729Z,8.76
2017-08-17T04:41:57.714Z,8.78
2017-08-17T04:42:57.705Z,8.78
2017-08-17T04:43:57.690Z,8.75
2017-08-17T04:44:57.694Z,8.82
2017-08-17T04:45:57.673Z,8.8
2017-08-17T04:46:57.670Z,8.82
2017-08-17T04:47:57.360Z,8.76
2017-08-17T04:48:57.640Z,8.76
2017-08-17T04:49:57.632Z,8.83
2017-08-17T04:50:57.628Z,8.88
2017-08-17T04:51:57.620Z,8.89
2017-08-17T04:52:57.611Z,8.89
2017-08-17T04:53:57.595Z,8.96
2017-08-17T04:54:57.583Z,8.98
2017-08-17T04:55:57.582Z,8.94
2017-08-17T04:56:57.575Z,8.97
2017-08-17T04:57:57.546Z,8.96
2017-08-17T04:58:57.243Z,9.12
2017-08-17T04:59:57.538Z,8.97
2017-08-17T05:00:57.530Z,9.03
2017-08-17T05:01:57.514Z,9.13
2017-08-17T05:02:57.517Z,9.22
2017-08-17T05:03:57.490Z,9.2
2017-08-17T05:04:57.477Z,9.26
2017-08-17T05:05:57.477Z,9.27
2017-08-17T05:06:57.460Z,9.31
2017-08-17T05:07:57.444Z,9.35
2017-08-17T05:08:57.447Z,9.48
2017-08-17T05:09:57.438Z,9.67
2017-08-17T05:10:57.445Z,9.52
2017-08-17T05:11:57.110Z,9.49
2017-08-17T05:12:57.409Z,9.48
2017-08-17T05:13:57.082Z,9.62
2017-08-17T05:14:57.378Z,9.63
2017-08-17T05:15:57.377Z,9.63
2017-08-17T05:16:57.371Z,9.58
2017-08-17T05:17:57.366Z,9.62
2017-08-17T05:18:57.341Z,9.63
2017-08-17T05:19:57.324Z,9.92
2017-08-17T05:20:57.329Z,9.89
2017-08-17T05:21:57.310Z,9.83
2017-08-17T05:22:57.309Z,9.91
2017-08-17T05:23:57.295Z,9.93
2017-08-17T05:24:57.279Z,9.88
2017-08-17T05:25:57.278Z,9.88
2017-08-17T05:26:56.961Z,9.85
2017-08-17T05:27:57.256Z,9.96
2017-08-17T05:28:57.236Z,10.1
2017-08-17T05:29:57.235Z,9.98
2017-08-17T05:30:57.217Z,10.04
2017-08-17T05:31:57.215Z,10.07
2017-08-17T05:32:57.195Z,9.98
2017-08-17T05:33:57.204Z,9.7
2017-08-17T05:34:57.183Z,9.56
2017-08-17T05:35:57.166Z,9.48
2017-08-17T05:36:56.855Z,9.34
2017-08-17T05:37:57.151Z,9.23
2017-08-17T05:38:57.132Z,9.23
2017-08-17T05:39:57.145Z,9.24
2017-08-17T05:40:57.115Z,9.17
2017-08-17T05:41:57.113Z,9.08
2017-08-17T05:42:57.102Z,9.17
2017-08-17T05:43:57.099Z,9.24
2017-08-17T05:44:57.090Z,9.2
2017-08-17T05:45:57.077Z,9.27
2017-08-17T05:46:56.750Z,9.24
2017-08-17T05:47:57.059Z,9.23
2017-08-17T05:48:57.049Z,9.22
2017-08-17T05:49:57.022Z,9.17
2017-08-17T05:50:57.010Z,9.23
2017-08-17T05:51:57.022Z,9.06
2017-08-17T05:52:57.001Z,9.17
2017-08-17T05:53:56.686Z,9.27
2017-08-17T05:54:56.974Z,9.13
2017-08-17T05:55:56.977Z,9.13
2017-08-17T05:56:56.662Z,9.13
2017-08-17T05:57:56.945Z,9.13
2017-08-17T05:58:56.927Z,9.12
2017-08-17T05:59:56.929Z,9.12
2017-08-17T06:00:56.918Z,9.15
2017-08-17T06:01:56.905Z,9.12
2017-08-17T06:02:56.892Z,9.12
2017-08-17T06:03:56.879Z,9.12
2017-08-17T06:04:56.877Z,9.23
2017-08-17T06:05:56.872Z,9.2
2017-08-17T06:06:56.852Z,9.1
2017-08-17T06:07:56.851Z,9.1
2017-08-17T06:08:56.833Z,9.13
2017-08-17T06:09:56.845Z,9.12
2017-08-17T06:10:56.823Z,9.24
2017-08-17T06:11:56.798Z,9.19
2017-08-17T06:12:56.789Z,9.22
2017-08-17T06:13:56.791Z,9.3
2017-08-17T06:14:56.777Z,9.37
2017-08-17T06:15:56.768Z,9.4
2017-08-17T06:16:56.765Z,9.6
2017-08-17T06:17:56.747Z,9.75
2017-08-17T06:18:56.731Z,9.75
2017-08-17T06:19:56.724Z,9.59
2017-08-17T06:20:56.729Z,9.6
2017-08-17T06:21:56.707Z,9.67
2017-08-17T06:22:56.691Z,9.59
2017-08-17T06:23:56.692Z,9.62
2017-08-17T06:24:56.678Z,9.68
2017-08-17T06:25:56.682Z,9.7
2017-08-17T06:26:56.668Z,9.7
2017-08-17T06:27:56.647Z,9.67
2017-08-17T06:28:56.628Z,9.65
2017-08-17T06:29:56.625Z,9.71
2017-08-17T06:30:56.616Z,9.63
2017-08-17T06:31:56.615Z,9.6
2017-08-17T06:32:56.618Z,9.67
2017-08-17T06:33:56.615Z,9.68
2017-08-17T06:34:56.578Z,9.93
2017-08-17T06:35:56.571Z,9.98
2017-08-17T06:36:56.570Z,9.93
2017-08-17T06:37:56.565Z,9.99
2017-08-17T06:38:56.550Z,9.96
2017-08-17T06:39:56.545Z,10.06
2017-08-17T06:40:56.533Z,10.04
2017-08-17T06:41:56.525Z,10.16
2017-08-17T06:42:56.524Z,10.34
2017-08-17T06:43:56.510Z,10.31
2017-08-17T06:44:56.501Z,10.32
2017-08-17T06:45:56.497Z,10.55
2017-08-17T06:46:55.869Z,10.76
2017-08-17T06:47:56.472Z,10.58
2017-08-17T06:48:56.452Z,10.51
2017-08-17T06:49:56.446Z,10.6
2017-08-17T06:50:56.453Z,10.86
2017-08-17T06:51:56.434Z,10.99
2017-08-17T06:52:56.426Z,10.99
2017-08-17T06:53:56.419Z,10.99
2017-08-17T06:54:56.426Z,10.91
2017-08-17T06:55:56.399Z,11.12
2017-08-17T06:56:56.398Z,11.38
2017-08-17T06:57:56.376Z,11.36
2017-08-17T06:58:56.378Z,11.67
2017-08-17T06:59:56.375Z,11.41
2017-08-17T07:00:56.054Z,11.48
2017-08-17T07:01:56.354Z,11.54
2017-08-17T07:05:30.643Z,11.96
2017-08-17T07:05:56.329Z,12.07
2017-08-17T07:06:56.306Z,12.44
2017-08-17T07:07:56.296Z,12.76
2017-08-17T07:08:56.295Z,13.09
2017-08-17T07:09:56.280Z,13.13
2017-08-17T07:10:56.277Z,13.32
2017-08-17T07:11:56.267Z,13.57
2017-08-17T07:12:55.959Z,13.59
2017-08-17T07:13:56.259Z,13.76
2017-08-17T07:14:56.238Z,13.84
2017-08-17T07:15:56.238Z,14.29
2017-08-17T07:16:56.228Z,14.93
2017-08-17T07:17:56.227Z,15.49
2017-08-17T07:18:56.220Z,15.99
2017-08-17T07:19:56.209Z,15.98
2017-08-17T07:20:56.202Z,15.77
2017-08-17T07:21:56.200Z,15.86
2017-08-17T07:22:56.189Z,15.91
2017-08-17T07:23:56.182Z,16.03
2017-08-17T07:24:56.183Z,16.32
2017-08-17T07:25:55.883Z,16.32
2017-08-17T07:26:56.160Z,16.17
2017-08-17T07:27:56.153Z,16.45
2017-08-17T07:28:56.139Z,16.44
2017-08-17T07:29:56.145Z,16.7
2017-08-17T07:30:56.148Z,16.99
2017-08-17T07:31:56.136Z,16.88
2017-08-17T07:32:56.126Z,16.48
2017-08-17T07:33:56.120Z,16.78
2017-08-17T07:34:56.125Z,16.6
2017-08-17T07:35:55.805Z,16.44
2017-08-17T07:36:55.512Z,16.18
2017-08-17T07:37:56.103Z,15.92
2017-08-17T07:38:56.095Z,15.28
2017-08-17T07:39:56.093Z,15.18
2017-08-17T07:40:56.095Z,14.29
2017-08-17T07:41:56.079Z,13.66
2017-08-17T07:42:56.074Z,13.24
2017-08-17T07:43:56.067Z,13.35
2017-08-17T07:44:56.064Z,12.76
2017-08-17T07:45:56.065Z,12.58
2017-08-17T07:46:56.058Z,12.77
2017-08-17T07:47:56.046Z,12.99
2017-08-17T07:48:56.042Z,13.32
2017-08-17T07:49:55.419Z,13.24
2017-08-17T07:50:56.022Z,13.55
2017-08-17T07:51:56.023Z,13.9
2017-08-17T07:52:56.019Z,14.21
2017-08-17T07:53:56.005Z,14.63
2017-08-17T07:54:56.019Z,15.01
2017-08-17T07:55:55.993Z,15.51
2017-08-17T07:56:55.686Z,15.74
2017-08-17T07:57:55.994Z,14.78
2017-08-17T07:58:55.675Z,14.23
2017-08-17T07:59:55.976Z,14.34
2017-08-17T08:00:55.662Z,14.41
2017-08-17T08:01:55.975Z,15.11
2017-08-17T08:02:55.648Z,15.4
2017-08-17T08:03:55.643Z,15.18
2017-08-17T08:04:55.339Z,15.48
2017-08-17T08:05:55.641Z,14.52
2017-08-17T08:06:55.620Z,13.68
2017-08-17T08:07:55.928Z,13.35
2017-08-17T08:08:55.920Z,12.69
2017-08-17T08:09:55.917Z,12.48
2017-08-17T08:10:55.908Z,12.38
2017-08-17T08:11:55.889Z,12.59
2017-08-17T08:12:55.891Z,13.14
2017-08-17T08:13:55.882Z,13.1
2017-08-17T08:14:55.878Z,13.27
2017-08-17T08:15:55.868Z,13.16
2017-08-17T08:16:55.869Z,13.1
2017-08-17T08:17:55.858Z,13.06
2017-08-17T08:18:55.858Z,13.01
2017-08-17T08:19:55.846Z,12.76
2017-08-17T08:20:55.844Z,12.7
2017-08-17T08:21:55.821Z,12.63
2017-08-17T08:22:55.826Z,12.77
2017-08-17T08:23:55.839Z,12.37
2017-08-17T08:24:55.799Z,12.52
2017-08-17T08:25:55.832Z,12.96
2017-08-17T08:26:55.796Z,13.47
2017-08-17T08:27:55.781Z,13.35
2017-08-17T08:28:55.796Z,13.09
2017-08-17T08:29:55.765Z,12.7
2017-08-17T08:30:55.774Z,12.3
2017-08-17T08:31:55.769Z,12.05
2017-08-17T08:32:55.744Z,11.93
2017-08-17T08:33:55.737Z,11.9
2017-08-17T08:34:55.728Z,11.93
2017-08-17T08:35:55.719Z,11.88
2017-08-17T08:36:55.714Z,12.52
2017-08-17T08:37:55.706Z,12.7
2017-08-17T08:38:55.689Z,12.89
2017-08-17T08:39:55.696Z,13.53
2017-08-17T08:40:55.692Z,13.53
2017-08-17T08:41:55.668Z,13.03
2017-08-17T08:42:55.661Z,12.92
2017-08-17T08:43:55.661Z,12.92
2017-08-17T08:44:55.665Z,12.73
2017-08-17T08:45:55.655Z,12.52
2017-08-17T08:46:55.642Z,12.61
2017-08-17T08:47:55.629Z,12.59
2017-08-17T08:48:55.627Z,12.51
2017-08-17T08:49:55.625Z,12.56
2017-08-17T08:50:55.604Z,12.54
2017-08-17T08:51:55.599Z,12.07
2017-08-17T08:52:55.587Z,12.07
2017-08-17T08:53:55.594Z,12.69
2017-08-17T08:54:55.582Z,13.01
2017-08-17T08:55:55.566Z,13.04
2017-08-17T08:56:55.560Z,13.07
2017-08-17T08:57:55.545Z,12.71
2017-08-17T08:58:55.551Z,12.41
2017-08-17T08:59:55.543Z,12.41
2017-08-17T09:00:55.219Z,12.31
2017-08-17T09:01:55.521Z,12.26
2017-08-17T09:02:55.204Z,12.36
2017-08-17T09:03:55.510Z,12.36
2017-08-17T09:04:55.509Z,12.71
2017-08-17T09:05:55.497Z,13.09
2017-08-17T09:06:55.487Z,13.01
2017-08-17T09:07:55.475Z,12.88
2017-08-17T09:08:55.463Z,12.79
2017-08-17T09:09:55.464Z,13.54
2017-08-17T09:10:55.443Z,13.93
2017-08-17T09:11:55.449Z,14.08
2017-08-17T09:12:55.445Z,13.83
2017-08-17T09:13:55.433Z,13.65
2017-08-17T09:14:55.414Z,14.31
2017-08-17T09:15:55.411Z,15.12
2017-08-17T09:16:55.403Z,15.25
2017-08-17T09:17:55.395Z,14.52
2017-08-17T09:18:55.392Z,13.99
2017-08-17T09:19:55.395Z,13.46
2017-08-17T09:20:55.381Z,13.12
2017-08-17T09:21:55.373Z,13.28
2017-08-17T09:22:55.368Z,13.04
2017-08-17T09:23:55.367Z,12.63
2017-08-17T09:24:55.353Z,13.16
2017-08-17T09:25:55.352Z,13.73
2017-08-17T09:26:55.331Z,14.79
2017-08-17T09:27:55.331Z,15.71
2017-08-17T09:28:55.328Z,16.48
2017-08-17T09:29:55.317Z,17.3
2017-08-17T09:30:55.310Z,17.63
2017-08-17T09:31:55.315Z,17.94
2017-08-17T09:32:55.304Z,18.16
2017-08-17T09:33:55.005Z,18.11
2017-08-17T09:34:55.291Z,17.62
2017-08-17T09:35:55.283Z,17.12
2017-08-17T09:36:55.280Z,16.85
2017-08-17T09:37:55.271Z,16.45
2017-08-17T09:38:55.276Z,16.17
2017-08-17T09:39:55.268Z,16.48
2017-08-17T09:40:55.264Z,16.73
2017-08-17T09:41:55.250Z,16.95
2017-08-17T09:42:54.950Z,17.38
2017-08-17T09:43:55.231Z,17.49
2017-08-17T09:44:55.240Z,17.99
2017-08-17T09:45:55.233Z,17.98
2017-08-17T09:46:55.217Z,18.02
2017-08-17T09:47:55.213Z,17.94
2017-08-17T09:48:55.212Z,17.58
2017-08-17T09:49:55.212Z,17.54
2017-08-17T09:50:55.199Z,17.63
2017-08-17T09:51:55.198Z,17.53
2017-08-17T09:52:55.194Z,18.01
2017-08-17T09:53:55.189Z,18.39
2017-08-17T09:54:55.180Z,18.64
2017-08-17T09:55:55.175Z,18.07
2017-08-17T09:56:55.172Z,18.1
2017-08-17T09:57:55.162Z,17.98
2017-08-17T09:58:55.160Z,18.28
2017-08-17T09:59:54.853Z,18.17
2017-08-17T10:00:55.150Z,18.2
2017-08-17T10:01:55.140Z,18.41
2017-08-17T10:02:55.141Z,18.47
2017-08-17T10:03:55.141Z,18.59
2017-08-17T10:04:55.135Z,18.39
2017-08-17T10:05:55.136Z,17.66
2017-08-17T10:06:55.135Z,17.62
2017-08-17T10:07:55.115Z,17.89
2017-08-17T10:08:55.124Z,17.65
2017-08-17T10:09:55.117Z,17.35
2017-08-17T10:10:55.106Z,16.78
2017-08-17T10:11:55.105Z,16.82
2017-08-17T10:12:54.791Z,16.77
2017-08-17T10:13:55.091Z,16.14
2017-08-17T10:14:55.094Z,15.8
2017-08-17T10:15:55.076Z,16.1
2017-08-17T10:16:54.767Z,16.4
2017-08-17T10:17:55.080Z,16.18
2017-08-17T10:18:55.067Z,15.67
2017-08-17T10:19:55.055Z,15.31
2017-08-17T10:20:55.066Z,15.58
2017-08-17T10:21:55.051Z,15.81
2017-08-17T10:22:55.042Z,15.76
2017-08-17T10:23:55.038Z,15.93
2017-08-17T10:24:54.736Z,16.11
2017-08-17T10:25:55.028Z,16.01
2017-08-17T10:26:55.024Z,16.26
2017-08-17T10:27:54.706Z,16.07
2017-08-17T10:28:55.023Z,15.71
2017-08-17T10:29:55.008Z,15.58
2017-08-17T10:30:55.001Z,15.74
2017-08-17T10:31:54.993Z,15.66
2017-08-17T10:32:54.993Z,15.22
2017-08-17T10:33:54.988Z,14.87
2017-08-17T10:34:54.968Z,15.04
2017-08-17T10:35:54.678Z,15.18
2017-08-17T10:36:54.961Z,15.16
2017-08-17T10:37:54.654Z,15.23
2017-08-17T10:38:54.960Z,15.67
2017-08-17T10:39:54.960Z,15.44
2017-08-17T10:40:54.949Z,15.3
2017-08-17T10:41:54.930Z,15.52
2017-08-17T10:42:54.930Z,15.37
2017-08-17T10:43:54.924Z,15.09
2017-08-17T10:44:54.927Z,15.28
2017-08-17T10:45:54.599Z,15.28
2017-08-17T10:46:54.904Z,15.43
2017-08-17T10:47:54.315Z,15.74
2017-08-17T10:48:54.894Z,16.55
2017-08-17T10:49:54.885Z,16.95
2017-08-17T10:50:54.888Z,16.77
2017-08-17T10:51:54.272Z,16.54
2017-08-17T10:52:54.862Z,16.75
2017-08-17T10:53:54.563Z,16.73
2017-08-17T10:54:54.865Z,16.14
2017-08-17T10:55:54.857Z,16.41
2017-08-17T10:56:54.843Z,16.69
2017-08-17T10:57:54.535Z,16.7
2017-08-17T10:58:54.541Z,16.75
2017-08-17T10:59:54.858Z,16.84
2017-08-17T11:00:54.209Z,16.75
2017-08-17T11:01:54.522Z,16.6
2017-08-17T11:02:54.519Z,16.45
2017-08-17T11:03:54.510Z,16.67
2017-08-17T11:04:54.500Z,16.91
2017-08-17T11:05:54.502Z,17.17
2017-08-17T11:06:54.824Z,17.27
2017-08-17T11:07:54.783Z,16.9
2017-08-17T11:08:54.527Z,16.73
2017-08-17T11:09:54.469Z,15.89
2017-08-17T11:10:54.478Z,15.3
2017-08-17T11:11:54.473Z,15.18
2017-08-17T11:12:54.456Z,15.56
2017-08-17T11:13:54.461Z,16.18
2017-08-17T11:14:54.747Z,16.95
2017-08-17T11:15:54.442Z,17.53
2017-08-17T11:16:54.752Z,17.91
2017-08-17T11:17:54.745Z,18.02
2017-08-17T11:18:54.733Z,17.98
2017-08-17T11:19:54.740Z,18.02
2017-08-17T11:20:54.418Z,17.35
2017-08-17T11:21:54.718Z,17.38
2017-08-17T11:22:54.719Z,17.14
2017-08-17T11:23:54.702Z,16.57
2017-08-17T11:24:54.702Z,16.51
2017-08-17T11:25:54.707Z,16.73
2017-08-17T11:26:54.700Z,16.84
2017-08-17T11:27:54.379Z,16.7
2017-08-17T11:28:54.673Z,17.25
2017-08-17T11:29:54.679Z,17.8
2017-08-17T11:30:54.662Z,17.53
2017-08-17T11:31:54.663Z,17.14
2017-08-17T11:32:54.660Z,17.49
2017-08-17T11:33:54.650Z,17.18
2017-08-17T11:34:54.647Z,16.75
2017-08-17T11:35:54.660Z,16.6
2017-08-17T11:36:54.646Z,17.17
2017-08-17T11:37:54.335Z,17.63
2017-08-17T11:38:54.334Z,17.42
2017-08-17T11:39:54.651Z,17.12
2017-08-17T11:40:54.629Z,16.9
2017-08-17T11:41:54.617Z,17.32
2017-08-17T11:42:54.316Z,17.12
2017-08-17T11:43:54.302Z,16.91
2017-08-17T11:44:54.606Z,17.17
2017-08-17T11:45:54.604Z,17.15
2017-08-17T11:46:54.290Z,17.33
2017-08-17T11:47:54.599Z,16.9
2017-08-17T11:48:54.280Z,16.33
2017-08-17T11:49:54.269Z,16.06
2017-08-17T11:50:54.592Z,16.3
2017-08-17T11:51:54.579Z,16.63
2017-08-17T11:52:54.563Z,16.91
2017-08-17T11:53:54.263Z,17.63
2017-08-17T11:54:54.554Z,17.33
2017-08-17T11:55:54.248Z,17.2
2017-08-17T11:56:54.247Z,17.36
2017-08-17T11:57:54.231Z,17.74
2017-08-17T11:58:54.224Z,18.19
2017-08-17T11:59:54.223Z,18.32
2017-08-17T12:00:54.222Z,18.5
2017-08-17T12:01:54.509Z,18.05
2017-08-17T12:02:54.522Z,18.07
2017-08-17T12:03:54.515Z,18.2
2017-08-17T12:04:54.206Z,17.68
2017-08-17T12:05:54.508Z,17.43
2017-08-17T12:06:54.191Z,17.7
2017-08-17T12:07:54.485Z,18.34
2017-08-17T12:08:54.495Z,18.42
2017-08-17T12:09:54.474Z,18.42
2017-08-17T12:10:54.384Z,18.07
2017-08-17T12:11:54.177Z,18.65
2017-08-17T12:12:54.477Z,18.23
2017-08-17T12:13:54.469Z,18.1
2017-08-17T12:14:54.160Z,18.46
2017-08-17T12:15:54.458Z,18.86
2017-08-17T12:16:54.149Z,18.93
2017-08-17T12:17:54.148Z,18.79
2017-08-17T12:18:54.452Z,18.91
2017-08-17T12:19:54.443Z,19.32
2017-08-17T12:20:54.328Z,18.6
2017-08-17T12:21:54.428Z,17.35
2017-08-17T12:22:54.446Z,16.78
2017-08-17T12:23:54.421Z,17.09
2017-08-17T12:24:54.418Z,17.89
2017-08-17T12:25:54.408Z,18.51
2017-08-17T12:26:54.414Z,18.2
2017-08-17T12:27:54.413Z,17.53
2017-08-17T12:28:54.403Z,16.92
2017-08-17T12:29:54.418Z,15.98
2017-08-17T12:30:54.393Z,16.22
2017-08-17T12:31:54.386Z,16.36
2017-08-17T12:32:54.398Z,16.4
2017-08-17T12:33:54.085Z,16.54
2017-08-17T12:34:54.391Z,17.4
2017-08-17T12:35:54.378Z,18.2
2017-08-17T12:36:54.373Z,18.57
2017-08-17T12:37:54.370Z,18.13
2017-08-17T12:38:54.365Z,18.13
2017-08-17T12:39:54.352Z,17.76
2017-08-17T12:40:54.354Z,17.36
2017-08-17T12:41:54.350Z,17.21
2017-08-17T12:42:54.346Z,15.77
2017-08-17T12:43:54.335Z,15.19
2017-08-17T12:44:54.346Z,14.83
2017-08-17T12:45:54.326Z,14.72
2017-08-17T12:46:54.032Z,14.82
2017-08-17T12:47:54.323Z,14.87
2017-08-17T12:48:54.326Z,15.12
2017-08-17T12:49:54.519Z,15.05
2017-08-17T12:50:54.317Z,15.04
2017-08-17T12:51:53.995Z,15.07
2017-08-17T12:52:54.303Z,14.86
2017-08-17T12:54:08.908Z,15.03
2017-08-17T12:54:54.300Z,15.22
2017-08-17T12:56:07.927Z,16.03
2017-08-17T12:56:54.272Z,16.18
2017-08-17T12:57:54.278Z,16.29
2017-08-17T12:58:54.265Z,16.44
2017-08-17T12:59:54.278Z,16.63
2017-08-17T13:00:54.255Z,16.63
2017-08-17T13:01:54.467Z,16.52
2017-08-17T13:02:53.949Z,17.02
2017-08-17T13:03:54.257Z,17.3
2017-08-17T13:04:54.247Z,17.14
2017-08-17T13:05:54.239Z,17.15
2017-08-17T13:06:54.236Z,16.85
2017-08-17T13:07:54.232Z,16.59
2017-08-17T13:08:54.216Z,16.29
2017-08-17T13:09:54.225Z,16.23
2017-08-17T13:10:54.214Z,16.14